Capitol Logistics 410


KRFD
Chicago/Rockford International Airport
Rockford, Illinois, US
KMSP
Minneapolis-St Paul International Airport
Minneapolis, Minnesota, US

Activity Log

Date Flight Route Aircraft Duration
01/15/2020 CPX410 RFD DBQ MNOSO BLUEM3 B738 1h 20m
11/29/2019 CPX410 RFD DBQ MNOSO BLUEM3 B738 1h 13m
11/18/2019 CPX410 N0319A110 RFD V128 JVL/N0452F380 DLL EAU EAU9 B738 1h 09m
11/14/2019 CPX410 N0306A110 RFD V128 JVL/N0448F400 DLL EAU EAU9 B738 1h 07m
11/11/2019 CPX410 N0343A110 RFD V128 JVL/N0455F360 DLL EAU EAU9 B738 1h 09m
10/28/2019 CPX410 RFD DBQ MNOSO BLUEM3 B738 1h 03m
08/02/2019 CPX410 KRFD RFD DBQ MNOSO BLUEM3 KMSP B738 1h 26m
07/19/2019 CPX410 RFD DBQ MNOSO BLUEM3 B738 1h 08m
06/25/2019 CPX410 RFD DBQ MNOSO BLUEM3 B738 1h 12m
03/09/2019 CPX410 RFD DBQ MNOSO BLUEM3 B752 0h 50m
02/20/2019 CPX410 RFD DBQ MNOSO BLUEM3 B752 1h 14m

Route Details

Aircraft Information
Primary: Boeing 737-800BCF
Backup: Not Available
Route Data
Distance: 278nm
Sched. Duration: 0h 45m
Avg. Duration: 1h 06m (+62m)
Times Flown: 11
Recm'd Route: RFD DBQ MNOSO BLUEM3
Planned Altitude: 28,000ft
Origin Wx: KRFD 151854Z 00000KT 7SM -RA SCT024 BKN065 OVC100 24/21 A2997 RMK AO2 LTG DSNT NE RAB24 SLP145 P0002 T02440211
Dest. Wx: KMSP 151853Z 17004KT 10SM FEW050 SCT160 BKN220 BKN250 25/10 A3002 RMK AO2 SLP162 T02500100
Notes:

Financial History
Total Freight: 395,239lbs
Average Load: 35,931lbs/flt
Fuel Used: 77,139lbs
Avg. Fuel Used: 7,013lbs/flt
Fuel Expense: $55,581
Avg. Fuel Expense: $5,053
Avg. Fuel Cost: $0.72/lbs
Total Gross Income: $511,209
Pilot Pay: $2,119
Total Expenses: $55,783
Total Revenue: $397,275
Average Revenue: $46,473.52